createdAt,value
2023-08-10T00:01:21.147Z,19.04
2023-08-10T00:04:24.069Z,18.90
2023-08-10T00:07:26.453Z,18.95
2023-08-10T00:10:29.221Z,18.79
2023-08-10T00:13:31.888Z,18.79
2023-08-10T00:16:34.659Z,18.79
2023-08-10T00:19:37.143Z,18.59
2023-08-10T00:22:39.869Z,18.55
2023-08-10T00:25:42.348Z,18.53
2023-08-10T00:28:45.313Z,18.59
2023-08-10T00:31:47.733Z,18.44
2023-08-10T00:34:50.472Z,18.51
2023-08-10T00:37:52.900Z,18.40
2023-08-10T00:40:55.589Z,18.35
2023-08-10T00:43:57.921Z,18.41
2023-08-10T00:47:01.159Z,18.37
2023-08-10T00:50:05.009Z,18.33
2023-08-10T00:53:07.766Z,18.34
2023-08-10T00:56:12.814Z,18.22
2023-08-10T00:59:15.606Z,18.21
2023-08-10T01:02:18.137Z,18.31
2023-08-10T01:05:22.265Z,18.28
2023-08-10T01:09:04.448Z,18.24
2023-08-10T01:12:26.535Z,18.14
2023-08-10T01:15:56.133Z,18.15
2023-08-10T01:19:00.445Z,18.10
2023-08-10T01:22:30.176Z,18.05
2023-08-10T01:25:33.815Z,18.04
2023-08-10T01:28:36.763Z,18.00
2023-08-10T01:31:39.638Z,17.96
2023-08-10T01:34:42.129Z,17.96
2023-08-10T01:37:45.007Z,17.92
2023-08-10T01:40:49.140Z,17.76
2023-08-10T01:43:51.867Z,17.75
2023-08-10T01:46:57.858Z,17.85
2023-08-10T01:50:03.570Z,17.79
2023-08-10T01:53:16.733Z,17.82
2023-08-10T01:56:20.772Z,17.74
2023-08-10T01:59:23.240Z,17.83
2023-08-10T02:02:26.231Z,17.77
2023-08-10T02:05:29.089Z,17.69
2023-08-10T02:08:32.141Z,17.64
2023-08-10T02:11:35.020Z,17.66
2023-08-10T02:14:37.340Z,17.69
2023-08-10T02:17:42.339Z,17.71
2023-08-10T02:20:45.329Z,17.69
2023-08-10T02:23:47.932Z,17.65
2023-08-10T02:26:50.668Z,17.63
2023-08-10T02:29:53.057Z,17.64
2023-08-10T02:32:56.438Z,17.63
2023-08-10T02:35:59.148Z,17.49
2023-08-10T02:39:06.021Z,17.50
2023-08-10T02:42:08.450Z,17.58
2023-08-10T02:45:11.863Z,17.43
2023-08-10T02:48:14.330Z,17.48
2023-08-10T02:51:17.013Z,17.51
2023-08-10T02:54:19.458Z,17.37
2023-08-10T02:57:22.203Z,17.51
2023-08-10T03:00:24.584Z,17.47
2023-08-10T03:03:28.039Z,17.58
2023-08-10T03:06:31.138Z,17.51
2023-08-10T03:09:34.217Z,17.57
2023-08-10T03:12:36.671Z,17.39
2023-08-10T03:15:39.456Z,17.47
2023-08-10T03:18:41.987Z,17.35
2023-08-10T03:21:45.048Z,17.37
2023-08-10T03:24:47.564Z,17.33
2023-08-10T03:27:51.023Z,17.28
2023-08-10T03:30:54.469Z,17.14
2023-08-10T03:33:57.440Z,17.12
2023-08-10T03:37:00.353Z,17.18
2023-08-10T03:40:04.880Z,17.09
2023-08-10T03:43:07.357Z,17.20
2023-08-10T03:46:10.101Z,17.16
2023-08-10T03:49:12.568Z,17.02
2023-08-10T03:52:15.708Z,16.89
2023-08-10T03:55:20.257Z,16.98
2023-08-10T03:58:23.534Z,17.00
2023-08-10T04:01:26.222Z,17.00
2023-08-10T04:04:28.850Z,17.14
2023-08-10T04:07:32.168Z,17.08
2023-08-10T04:10:35.492Z,17.15
2023-08-10T04:13:37.834Z,17.21
2023-08-10T04:16:41.165Z,17.22
2023-08-10T04:19:43.596Z,17.26
2023-08-10T04:22:46.573Z,17.04
2023-08-10T04:25:48.988Z,17.19
2023-08-10T04:28:52.283Z,17.21
2023-08-10T04:31:55.080Z,17.27
2023-08-10T04:34:58.814Z,17.19
2023-08-10T04:38:01.201Z,17.20
2023-08-10T04:41:04.172Z,17.41
2023-08-10T04:44:06.825Z,17.41
2023-08-10T04:47:09.426Z,17.41
2023-08-10T04:50:12.992Z,17.39
2023-08-10T04:53:15.675Z,17.43
2023-08-10T04:56:18.773Z,17.37
2023-08-10T04:59:22.011Z,17.50
2023-08-10T05:02:26.286Z,17.54
2023-08-10T05:05:29.302Z,17.58
2023-08-10T05:08:31.623Z,17.75
2023-08-10T05:11:34.333Z,17.67
2023-08-10T05:14:36.717Z,17.81
2023-08-10T05:17:39.626Z,17.89
2023-08-10T05:20:42.219Z,17.95
2023-08-10T05:23:45.371Z,18.00
2023-08-10T05:26:47.806Z,17.92
2023-08-10T05:29:50.557Z,18.10
2023-08-10T05:32:53.831Z,18.03
2023-08-10T05:35:56.652Z,18.16
2023-08-10T05:38:59.208Z,18.10
2023-08-10T05:42:01.801Z,18.19
2023-08-10T05:45:04.960Z,18.15
2023-08-10T05:48:12.313Z,18.19
2023-08-10T05:51:14.738Z,18.35
2023-08-10T05:54:17.461Z,18.43
2023-08-10T05:57:20.900Z,18.50
2023-08-10T06:00:23.609Z,18.57
2023-08-10T06:03:26.323Z,18.63
2023-08-10T06:06:30.357Z,18.67
2023-08-10T06:09:33.023Z,18.79
2023-08-10T06:12:35.405Z,18.68
2023-08-10T06:15:38.061Z,18.72
2023-08-10T06:18:40.751Z,18.87
2023-08-10T06:21:43.434Z,18.98
2023-08-10T06:24:46.379Z,18.97
2023-08-10T06:27:50.809Z,19.10
2023-08-10T06:30:53.684Z,19.10
2023-08-10T06:33:56.357Z,19.32
2023-08-10T06:36:58.930Z,19.49
2023-08-10T06:40:01.892Z,19.64
2023-08-10T06:43:04.647Z,19.74
2023-08-10T06:46:07.776Z,19.73
2023-08-10T06:49:10.274Z,19.97
2023-08-10T06:52:15.882Z,20.03
2023-08-10T06:55:24.058Z,20.25
2023-08-10T07:01:32.611Z,20.71
2023-08-10T07:04:37.670Z,20.83
2023-08-10T07:07:40.375Z,20.96
2023-08-10T07:10:43.210Z,21.20
2023-08-10T07:13:47.390Z,21.33
2023-08-10T07:16:50.078Z,21.50
2023-08-10T07:19:52.440Z,21.63
2023-08-10T07:22:55.219Z,21.87
2023-08-10T07:25:57.816Z,21.83
2023-08-10T07:29:01.034Z,21.94
2023-08-10T07:32:03.992Z,22.13
2023-08-10T07:35:07.582Z,22.24
2023-08-10T07:38:10.298Z,22.35
2023-08-10T07:41:14.784Z,22.75
2023-08-10T07:44:17.353Z,23.21
2023-08-10T07:47:20.053Z,23.05
2023-08-10T07:50:22.521Z,23.55
2023-08-10T07:53:25.798Z,23.83
2023-08-10T07:56:28.155Z,23.78
2023-08-10T07:59:31.603Z,24.11
2023-08-10T08:02:34.356Z,24.31
2023-08-10T08:05:38.996Z,24.83
2023-08-10T08:08:41.447Z,24.85
2023-08-10T08:11:44.186Z,25.10
2023-08-10T08:14:46.634Z,25.22
2023-08-10T08:18:57.216Z,25.51
2023-08-10T08:21:59.695Z,25.84
2023-08-10T08:25:02.410Z,26.00
2023-08-10T08:28:05.289Z,26.10
2023-08-10T08:31:08.143Z,26.35
2023-08-10T08:34:10.756Z,26.30
2023-08-10T08:37:13.495Z,26.49
2023-08-10T08:40:16.065Z,26.80
2023-08-10T08:43:19.133Z,27.16
2023-08-10T08:46:29.396Z,27.28
2023-08-10T08:49:32.785Z,27.45
2023-08-10T08:52:35.178Z,27.74
2023-08-10T08:55:39.329Z,27.83
2023-08-10T08:58:41.731Z,28.31
2023-08-10T09:01:50.249Z,28.56
2023-08-10T09:04:58.835Z,28.83
2023-08-10T09:08:01.657Z,29.13
2023-08-10T09:11:05.177Z,29.29
2023-08-10T09:14:09.770Z,29.41
2023-08-10T09:17:12.271Z,29.71
2023-08-10T09:20:19.735Z,29.74
2023-08-10T09:23:26.998Z,29.99
2023-08-10T09:26:29.904Z,30.19
2023-08-10T09:29:33.920Z,30.17
2023-08-10T09:32:37.355Z,30.39
2023-08-10T09:35:39.828Z,30.52
2023-08-10T09:38:51.504Z,30.63
2023-08-10T09:41:57.534Z,29.96
2023-08-10T09:45:06.500Z,29.12
2023-08-10T09:48:13.533Z,29.94
2023-08-10T09:51:16.632Z,29.93
2023-08-10T09:54:19.364Z,30.06
2023-08-10T09:57:22.886Z,30.15
2023-08-10T10:00:25.167Z,30.31
2023-08-10T10:03:32.512Z,30.32
2023-08-10T10:06:35.202Z,30.70
2023-08-10T10:09:39.776Z,30.74
2023-08-10T10:12:44.083Z,30.44
2023-08-10T10:15:46.989Z,30.38
2023-08-10T10:18:49.911Z,31.12
2023-08-10T10:21:52.957Z,31.47
2023-08-10T10:24:58.104Z,31.53
2023-08-10T10:28:13.151Z,31.51
2023-08-10T10:31:16.521Z,31.34
2023-08-10T10:34:21.912Z,31.66
2023-08-10T10:37:36.740Z,31.98
2023-08-10T10:40:41.734Z,31.86
2023-08-10T10:43:47.811Z,32.08
2023-08-10T10:46:50.818Z,31.96
2023-08-10T10:49:56.032Z,31.89
2023-08-10T10:53:00.189Z,31.37
2023-08-10T10:56:02.911Z,31.45
2023-08-10T10:59:05.816Z,31.19
2023-08-10T11:02:08.677Z,31.59
2023-08-10T11:05:16.517Z,31.48
2023-08-10T11:08:19.046Z,31.67
2023-08-10T11:11:23.260Z,30.86
2023-08-10T11:14:29.758Z,31.13
2023-08-10T11:17:48.027Z,31.36
2023-08-10T11:20:52.371Z,31.35
2023-08-10T11:23:59.359Z,30.03
2023-08-10T11:27:03.035Z,30.46
2023-08-10T11:30:06.541Z,29.34
2023-08-10T11:33:11.879Z,28.22
2023-08-10T11:36:15.109Z,28.86
2023-08-10T11:39:17.729Z,28.78
2023-08-10T11:42:21.019Z,28.53
2023-08-10T11:45:26.150Z,29.03
2023-08-10T11:48:28.937Z,29.36
2023-08-10T11:51:35.123Z,29.81
2023-08-10T11:54:39.074Z,29.79
2023-08-10T11:57:43.470Z,29.94
2023-08-10T12:00:52.096Z,30.18
2023-08-10T12:03:57.663Z,30.30
2023-08-10T12:07:01.515Z,30.45
2023-08-10T12:10:05.723Z,30.35
2023-08-10T12:13:11.538Z,30.19
2023-08-10T12:16:16.821Z,30.26
2023-08-10T12:19:24.989Z,30.27
2023-08-10T12:22:40.411Z,30.12
2023-08-10T12:25:47.672Z,30.34
2023-08-10T12:28:50.819Z,29.09
2023-08-10T12:31:53.276Z,29.03
2023-08-10T12:34:55.884Z,29.07
2023-08-10T12:37:58.233Z,29.36
2023-08-10T12:41:01.312Z,29.57
2023-08-10T12:44:03.905Z,29.94
2023-08-10T12:47:06.788Z,30.00
2023-08-10T12:50:14.899Z,29.85
2023-08-10T12:53:17.583Z,29.91
2023-08-10T12:56:21.859Z,29.79
2023-08-10T12:59:24.732Z,29.65
2023-08-10T13:02:33.612Z,29.79
2023-08-10T13:05:37.282Z,29.89
2023-08-10T13:08:39.719Z,29.53
2023-08-10T13:11:42.412Z,29.38
2023-08-10T13:14:44.825Z,29.30
2023-08-10T13:17:47.636Z,29.45
2023-08-10T13:20:50.266Z,29.34
2023-08-10T13:23:53.184Z,29.09
2023-08-10T13:26:55.648Z,29.06
2023-08-10T13:29:58.427Z,29.04
2023-08-10T13:33:00.957Z,28.73
2023-08-10T13:36:03.887Z,28.82
2023-08-10T13:39:07.491Z,28.77
2023-08-10T13:42:10.365Z,28.56
2023-08-10T13:45:13.320Z,28.61
2023-08-10T13:48:15.994Z,28.48
2023-08-10T13:51:18.442Z,28.40
2023-08-10T13:54:21.149Z,28.44
2023-08-10T13:57:23.762Z,28.11
2023-08-10T14:00:26.462Z,28.17
2023-08-10T14:03:29.442Z,28.12
2023-08-10T14:06:31.867Z,28.07
2023-08-10T14:09:34.637Z,28.05
2023-08-10T14:12:37.207Z,27.78
2023-08-10T14:15:39.895Z,27.60
2023-08-10T14:18:42.232Z,27.49
2023-08-10T14:21:45.046Z,27.40
2023-08-10T14:24:47.451Z,27.27
2023-08-10T14:27:50.374Z,27.34
2023-08-10T14:30:52.908Z,27.24
2023-08-10T14:33:55.688Z,27.26
2023-08-10T14:36:58.242Z,27.06
2023-08-10T14:40:00.876Z,27.11
2023-08-10T14:43:03.414Z,26.83
2023-08-10T14:46:06.210Z,26.68
2023-08-10T14:49:08.842Z,26.73
2023-08-10T14:52:11.464Z,26.53
2023-08-10T14:55:21.320Z,26.55
2023-08-10T14:58:25.234Z,26.49
2023-08-10T15:01:28.125Z,26.47
2023-08-10T15:04:31.741Z,26.35
2023-08-10T15:07:34.053Z,26.19
2023-08-10T15:10:36.650Z,26.20
2023-08-10T15:13:39.042Z,26.15
2023-08-10T15:16:41.757Z,26.06
2023-08-10T15:19:44.329Z,26.09
2023-08-10T15:22:47.102Z,25.92
2023-08-10T15:25:50.398Z,25.83
2023-08-10T15:28:53.433Z,25.81
2023-08-10T15:31:55.900Z,25.72
2023-08-10T15:34:58.669Z,25.71
2023-08-10T15:38:01.006Z,25.60
2023-08-10T15:41:06.794Z,25.53
2023-08-10T15:44:09.397Z,25.43
2023-08-10T15:47:11.991Z,25.35
2023-08-10T15:50:16.222Z,25.14
2023-08-10T15:53:19.347Z,25.18
2023-08-10T15:56:21.765Z,24.99
2023-08-10T15:59:24.546Z,24.95
2023-08-10T16:02:26.954Z,24.73
2023-08-10T16:05:30.115Z,24.74
2023-08-10T16:08:32.483Z,24.55
2023-08-10T16:11:35.839Z,24.42
2023-08-10T16:14:38.268Z,24.49
2023-08-10T16:17:40.946Z,24.46
2023-08-10T16:20:45.901Z,24.27
2023-08-10T16:23:48.732Z,24.36
2023-08-10T16:26:51.125Z,24.23
2023-08-10T16:29:53.806Z,24.15
2023-08-10T16:32:56.415Z,24.16
2023-08-10T16:35:59.222Z,24.07
2023-08-10T16:39:01.611Z,23.93
2023-08-10T16:42:04.741Z,23.90
2023-08-10T16:45:08.358Z,23.84
2023-08-10T16:48:12.098Z,23.88
2023-08-10T16:51:14.735Z,23.75
2023-08-10T16:54:17.387Z,23.75
2023-08-10T16:57:20.140Z,23.68
2023-08-10T17:00:25.466Z,23.54
2023-08-10T17:03:28.191Z,23.46
2023-08-10T17:06:31.240Z,23.47
2023-08-10T17:09:33.742Z,23.50
2023-08-10T17:12:36.484Z,23.44
2023-08-10T17:15:39.223Z,23.38
2023-08-10T17:18:42.637Z,23.36
2023-08-10T17:21:45.164Z,23.29
2023-08-10T17:24:50.543Z,23.18
2023-08-10T17:27:52.943Z,23.23
2023-08-10T17:30:57.331Z,23.14
2023-08-10T17:34:00.945Z,23.12
2023-08-10T17:37:04.755Z,22.82
2023-08-10T17:40:11.246Z,23.00
2023-08-10T17:43:14.416Z,22.95
2023-08-10T17:46:16.981Z,22.90
2023-08-10T17:49:20.181Z,22.77
2023-08-10T17:52:22.643Z,22.73
2023-08-10T17:55:29.003Z,22.67
2023-08-10T17:58:31.597Z,22.73
2023-08-10T18:01:35.312Z,22.63
2023-08-10T18:04:38.376Z,22.49
2023-08-10T18:07:40.896Z,22.56
2023-08-10T18:10:43.561Z,22.36
2023-08-10T18:13:46.356Z,22.42
2023-08-10T18:16:49.396Z,22.37
2023-08-10T18:19:51.921Z,22.27
2023-08-10T18:22:54.564Z,22.27
2023-08-10T18:26:00.162Z,22.24
2023-08-10T18:29:03.111Z,22.17
2023-08-10T18:32:24.555Z,22.12
2023-08-10T18:35:29.848Z,21.94
2023-08-10T18:38:32.386Z,21.95
2023-08-10T18:41:40.214Z,21.89
2023-08-10T18:44:44.827Z,21.71
2023-08-10T18:47:47.685Z,21.55
2023-08-10T18:50:50.699Z,21.48
2023-08-10T18:53:53.504Z,21.62
2023-08-10T18:56:56.559Z,21.61
2023-08-10T19:00:11.609Z,21.45
2023-08-10T19:03:14.410Z,21.49
2023-08-10T19:06:17.575Z,21.24
2023-08-10T19:09:21.666Z,21.26
2023-08-10T19:12:26.783Z,21.24
2023-08-10T19:15:31.401Z,21.25
2023-08-10T19:18:35.822Z,20.91
2023-08-10T19:21:43.341Z,20.68
2023-08-10T19:24:46.090Z,20.81
2023-08-10T19:27:48.737Z,20.63
2023-08-10T19:30:53.491Z,20.72
2023-08-10T19:33:56.015Z,20.55
2023-08-10T19:37:00.160Z,20.64
2023-08-10T19:40:02.705Z,20.47
2023-08-10T19:43:05.556Z,20.34
2023-08-10T19:46:10.335Z,20.44
2023-08-10T19:49:13.206Z,20.45
2023-08-10T19:52:19.100Z,20.20
2023-08-10T19:55:24.337Z,20.06
2023-08-10T19:58:27.782Z,20.46
2023-08-10T20:01:35.069Z,20.05
2023-08-10T20:04:38.645Z,20.24
2023-08-10T20:07:41.200Z,20.33
2023-08-10T20:10:43.987Z,20.32
2023-08-10T20:13:46.355Z,20.17
2023-08-10T20:16:49.186Z,20.10
2023-08-10T20:19:52.295Z,20.09
2023-08-10T20:22:58.436Z,20.23
2023-08-10T20:26:00.878Z,20.05
2023-08-10T20:29:04.860Z,20.20
2023-08-10T20:32:07.600Z,20.19
2023-08-10T20:35:12.741Z,20.09
2023-08-10T20:38:15.710Z,20.13
2023-08-10T20:41:18.696Z,20.12
2023-08-10T20:44:21.168Z,20.05
2023-08-10T20:47:24.025Z,20.00
2023-08-10T20:50:30.432Z,20.09
2023-08-10T20:53:33.950Z,19.90
2023-08-10T20:56:37.080Z,20.03
2023-08-10T20:59:39.812Z,19.93
2023-08-10T21:02:42.413Z,19.98
2023-08-10T21:05:45.339Z,19.95
2023-08-10T21:08:48.989Z,19.79
2023-08-10T21:11:52.734Z,19.82
2023-08-10T21:14:55.169Z,19.87
2023-08-10T21:17:57.861Z,19.84
2023-08-10T21:21:00.281Z,19.63
2023-08-10T21:24:05.076Z,19.68
2023-08-10T21:27:07.991Z,19.53
2023-08-10T21:30:11.124Z,19.55
2023-08-10T21:33:13.750Z,19.55
2023-08-10T21:36:16.546Z,19.53
2023-08-10T21:39:19.037Z,19.55
2023-08-10T21:42:21.707Z,19.61
2023-08-10T21:45:24.407Z,19.59
2023-08-10T21:48:27.109Z,19.61
2023-08-10T21:51:29.449Z,19.39
2023-08-10T21:54:32.159Z,19.59
2023-08-10T21:57:34.851Z,19.43
2023-08-10T22:00:37.584Z,19.36
2023-08-10T22:03:44.339Z,19.33
2023-08-10T22:06:46.928Z,19.41
2023-08-10T22:09:49.653Z,19.35
2023-08-10T22:12:52.661Z,19.34
2023-08-10T22:15:57.630Z,19.28
2023-08-10T22:19:00.035Z,19.28
2023-08-10T22:22:02.813Z,19.26
2023-08-10T22:25:06.327Z,19.23
2023-08-10T22:28:09.777Z,19.23
2023-08-10T22:31:12.423Z,19.05
2023-08-10T22:34:15.095Z,19.11
2023-08-10T22:37:17.704Z,18.95
2023-08-10T22:40:20.682Z,19.02
2023-08-10T22:43:23.358Z,19.05
2023-08-10T22:46:26.097Z,19.07
2023-08-10T22:49:29.258Z,18.98
2023-08-10T22:52:32.017Z,18.84
2023-08-10T22:55:34.621Z,18.86
2023-08-10T22:58:37.580Z,18.87
2023-08-10T23:01:40.119Z,18.92
2023-08-10T23:04:43.232Z,18.76
2023-08-10T23:07:45.601Z,18.83
2023-08-10T23:10:51.137Z,18.80
2023-08-10T23:13:53.471Z,18.80
2023-08-10T23:16:56.439Z,18.73
2023-08-10T23:19:58.946Z,18.66
2023-08-10T23:23:01.567Z,18.56
2023-08-10T23:26:05.695Z,18.56
2023-08-10T23:29:08.405Z,18.59
2023-08-10T23:32:13.917Z,18.57
2023-08-10T23:35:17.712Z,18.44
2023-08-10T23:38:20.222Z,18.49
2023-08-10T23:41:22.989Z,18.51
2023-08-10T23:44:25.399Z,18.39
2023-08-10T23:47:28.063Z,18.48
2023-08-10T23:50:30.439Z,18.45
2023-08-10T23:53:33.206Z,18.39
2023-08-10T23:56:36.216Z,18.36
2023-08-10T23:59:40.410Z,18.38
